createdAt,value
2023-08-14T00:00:08.930Z,100413.81
2023-08-14T00:02:45.955Z,100420.94
2023-08-14T00:05:15.798Z,100425.41
2023-08-14T00:07:45.603Z,100431.41
2023-08-14T00:10:15.614Z,100420.44
2023-08-14T00:12:45.388Z,100417.59
2023-08-14T00:15:15.428Z,100419.94
2023-08-14T00:17:48.028Z,100422.53
2023-08-14T00:20:17.847Z,100421.66
2023-08-14T00:22:47.623Z,100418.16
2023-08-14T00:25:17.591Z,100420.81
2023-08-14T00:27:47.366Z,100418.91
2023-08-14T00:30:17.268Z,100413.56
2023-08-14T00:32:49.839Z,100413.56
2023-08-14T00:35:19.880Z,100412.03
2023-08-14T00:37:51.175Z,100414.06
2023-08-14T00:40:21.169Z,100408.06
2023-08-14T00:42:51.099Z,100416.28
2023-08-14T00:45:22.231Z,100417.31
2023-08-14T00:47:55.342Z,100418.34
2023-08-14T00:50:25.295Z,100414.91
2023-08-14T00:52:58.175Z,100418.47
2023-08-14T00:55:29.458Z,100413.88
2023-08-14T00:57:59.591Z,100420.09
2023-08-14T01:00:29.936Z,100418.06
2023-08-14T01:03:02.585Z,100415.97
2023-08-14T01:05:32.580Z,100414.72
2023-08-14T01:08:02.568Z,100413.56
2023-08-14T01:10:42.863Z,100408.06
2023-08-14T01:13:25.242Z,100409.75
2023-08-14T01:15:57.802Z,100411.66
2023-08-14T01:18:31.720Z,100401.94
2023-08-14T01:21:14.946Z,100405.56
2023-08-14T01:23:53.756Z,100407.69
2023-08-14T01:26:26.628Z,100403.50
2023-08-14T01:28:57.682Z,100403.66
2023-08-14T01:31:27.594Z,100409.31
2023-08-14T01:33:57.756Z,100408.72
2023-08-14T01:36:31.818Z,100399.31
2023-08-14T01:39:08.455Z,100391.63
2023-08-14T01:41:45.568Z,100395.50
2023-08-14T01:44:18.142Z,100393.03
2023-08-14T01:46:48.013Z,100382.56
2023-08-14T01:49:18.829Z,100379.13
2023-08-14T01:51:50.476Z,100376.53
2023-08-14T01:54:20.613Z,100365.13
2023-08-14T01:56:53.024Z,100369.88
2023-08-14T01:59:28.568Z,100369.31
2023-08-14T02:01:58.446Z,100362.34
2023-08-14T02:04:28.241Z,100369.63
2023-08-14T02:06:58.016Z,100366.16
2023-08-14T02:09:27.815Z,100357.63
2023-08-14T02:12:00.347Z,100356.06
2023-08-14T02:14:30.142Z,100348.22
2023-08-14T02:17:00.039Z,100343.28
2023-08-14T02:19:29.821Z,100348.03
2023-08-14T02:21:59.626Z,100351.84
2023-08-14T02:24:29.382Z,100345.84
2023-08-14T02:27:01.805Z,100344.31
2023-08-14T02:29:31.823Z,100346.13
2023-08-14T02:32:01.654Z,100339.84
2023-08-14T02:34:36.607Z,100336.31
2023-08-14T02:37:06.428Z,100331.19
2023-08-14T02:39:36.205Z,100325.09
2023-08-14T02:42:08.949Z,100330.50
2023-08-14T02:44:39.272Z,100334.03
2023-08-14T02:47:09.781Z,100327.09
2023-08-14T02:49:39.815Z,100326.31
2023-08-14T02:52:09.872Z,100326.50
2023-08-14T02:54:39.816Z,100330.28
2023-08-14T02:57:12.355Z,100341.25
2023-08-14T02:59:42.227Z,100333.59
2023-08-14T03:02:12.213Z,100334.81
2023-08-14T03:04:43.335Z,100329.78
2023-08-14T03:07:13.180Z,100332.53
2023-08-14T03:09:42.938Z,100333.38
2023-08-14T03:12:15.566Z,100339.56
2023-08-14T03:14:45.830Z,100337.94
2023-08-14T03:17:15.784Z,100336.41
2023-08-14T03:19:45.594Z,100330.56
2023-08-14T03:22:15.878Z,100328.19
2023-08-14T03:24:46.307Z,100335.59
2023-08-14T03:27:18.760Z,100339.38
2023-08-14T03:29:48.732Z,100333.53
2023-08-14T03:32:19.002Z,100332.00
2023-08-14T03:34:49.253Z,100327.81
2023-08-14T03:37:19.163Z,100343.00
2023-08-14T03:39:50.092Z,100348.59
2023-08-14T03:42:22.803Z,100339.84
2023-08-14T03:44:52.741Z,100344.38
2023-08-14T03:47:22.531Z,100345.44
2023-08-14T03:49:52.312Z,100343.81
2023-08-14T03:52:22.094Z,100344.75
2023-08-14T03:54:51.903Z,100342.13
2023-08-14T03:57:25.814Z,100338.69
2023-08-14T03:59:55.662Z,100338.78
2023-08-14T04:02:25.735Z,100337.06
2023-08-14T04:04:55.828Z,100338.69
2023-08-14T04:07:25.659Z,100342.13
2023-08-14T04:09:55.439Z,100331.50
2023-08-14T04:12:27.866Z,100319.00
2023-08-14T04:14:57.705Z,100332.28
2023-08-14T04:17:27.498Z,100333.06
2023-08-14T04:19:57.330Z,100328.34
2023-08-14T04:22:27.207Z,100321.91
2023-08-14T04:24:56.980Z,100316.41
2023-08-14T04:27:29.362Z,100320.78
2023-08-14T04:29:59.197Z,100320.78
2023-08-14T04:32:29.552Z,100311.00
2023-08-14T04:34:59.430Z,100322.41
2023-08-14T04:37:29.493Z,100320.50
2023-08-14T04:39:59.497Z,100328.41
2023-08-14T04:42:32.526Z,100321.19
2023-08-14T04:45:02.339Z,100317.56
2023-08-14T04:47:32.612Z,100324.63
2023-08-14T04:50:03.626Z,100322.75
2023-08-14T04:52:33.423Z,100319.03
2023-08-14T04:55:03.279Z,100316.94
2023-08-14T04:57:39.986Z,100303.38
2023-08-14T05:00:13.034Z,100301.22
2023-08-14T05:02:43.938Z,100301.72
2023-08-14T05:05:14.048Z,100308.19
2023-08-14T05:07:43.848Z,100313.72
2023-08-14T05:10:13.726Z,100313.97
2023-08-14T05:12:48.471Z,100322.91
2023-08-14T05:15:18.570Z,100320.53
2023-08-14T05:17:48.421Z,100311.88
2023-08-14T05:20:18.544Z,100291.72
2023-08-14T05:22:48.698Z,100284.88
2023-08-14T05:25:18.550Z,100295.69
2023-08-14T05:27:51.136Z,100294.91
2023-08-14T05:30:21.110Z,100296.00
2023-08-14T05:32:50.946Z,100289.97
2023-08-14T05:35:24.870Z,100304.34
2023-08-14T05:37:56.917Z,100316.03
2023-08-14T05:40:27.106Z,100305.41
2023-08-14T05:43:09.792Z,100306.06
2023-08-14T05:45:40.936Z,100306.78
2023-08-14T05:48:11.206Z,100298.47
2023-08-14T05:50:41.221Z,100300.72
2023-08-14T05:53:11.308Z,100310.22
2023-08-14T05:55:42.902Z,100301.78
2023-08-14T05:58:15.277Z,100303.78
2023-08-14T06:00:45.189Z,100300.44
2023-08-14T06:03:20.248Z,100294.00
2023-08-14T06:05:55.580Z,100281.00
2023-08-14T06:08:25.331Z,100290.75
2023-08-14T06:10:55.240Z,100289.94
2023-08-14T06:13:27.678Z,100296.19
2023-08-14T06:15:57.465Z,100295.72
2023-08-14T06:18:27.742Z,100290.59
2023-08-14T06:20:59.798Z,100296.69
2023-08-14T06:23:29.629Z,100292.84
2023-08-14T06:26:00.637Z,100294.34
2023-08-14T06:28:33.118Z,100291.13
2023-08-14T06:31:05.002Z,100307.31
2023-08-14T06:33:36.568Z,100319.00
2023-08-14T06:36:09.971Z,100310.91
2023-08-14T06:38:40.027Z,100302.44
2023-08-14T06:41:10.434Z,100302.91
2023-08-14T06:43:44.054Z,100294.25
2023-08-14T06:46:13.904Z,100289.81
2023-08-14T06:48:43.715Z,100281.75
2023-08-14T06:51:13.543Z,100273.50
2023-08-14T06:53:43.401Z,100272.06
2023-08-14T06:56:13.354Z,100281.81
2023-08-14T06:58:45.718Z,100294.09
2023-08-14T07:01:15.589Z,100292.94
2023-08-14T07:03:45.434Z,100301.63
2023-08-14T07:06:15.468Z,100307.09
2023-08-14T07:08:45.776Z,100304.75
2023-08-14T07:11:15.514Z,100308.56
2023-08-14T07:13:49.025Z,100302.53
2023-08-14T07:16:18.916Z,100294.25
2023-08-14T07:18:48.752Z,100294.56
2023-08-14T07:21:18.519Z,100282.78
2023-08-14T07:23:48.352Z,100280.78
2023-08-14T07:26:18.176Z,100272.53
2023-08-14T07:28:50.560Z,100280.31
2023-08-14T07:31:20.313Z,100286.84
2023-08-14T07:33:50.124Z,100282.09
2023-08-14T07:36:19.900Z,100299.47
2023-08-14T07:38:49.711Z,100296.94
2023-08-14T07:41:19.513Z,100288.13
2023-08-14T07:43:51.890Z,100283.03
2023-08-14T07:46:21.663Z,100268.53
2023-08-14T07:48:54.495Z,100265.78
2023-08-14T07:51:24.868Z,100263.66
2023-08-14T07:53:54.704Z,100266.50
2023-08-14T07:56:24.483Z,100250.19
2023-08-14T07:58:56.836Z,100245.59
2023-08-14T08:01:26.681Z,100254.03
2023-08-14T08:03:56.467Z,100266.84
2023-08-14T08:06:26.941Z,100282.50
2023-08-14T08:08:56.864Z,100282.22
2023-08-14T08:11:26.622Z,100281.16
2023-08-14T08:14:01.102Z,100281.41
2023-08-14T08:16:31.875Z,100286.28
2023-08-14T08:19:01.657Z,100294.13
2023-08-14T08:21:31.421Z,100288.22
2023-08-14T08:24:01.276Z,100276.81
2023-08-14T08:26:31.056Z,100282.06
2023-08-14T08:29:03.639Z,100268.03
2023-08-14T08:31:33.397Z,100269.16
2023-08-14T08:34:03.185Z,100272.50
2023-08-14T08:36:32.953Z,100268.84
2023-08-14T08:39:02.678Z,100263.63
2023-08-14T08:41:35.538Z,100270.63
2023-08-14T08:44:10.167Z,100273.44
2023-08-14T08:46:44.432Z,100271.16
2023-08-14T08:49:14.878Z,100263.44
2023-08-14T08:51:48.740Z,100262.63
2023-08-14T08:54:19.377Z,100265.44
2023-08-14T08:56:49.389Z,100274.88
2023-08-14T08:59:22.772Z,100272.41
2023-08-14T09:01:54.094Z,100269.91
2023-08-14T09:04:25.342Z,100280.75
2023-08-14T09:06:55.149Z,100280.03
2023-08-14T09:09:25.781Z,100278.91
2023-08-14T09:11:55.561Z,100282.34
2023-08-14T09:14:28.415Z,100285.25
2023-08-14T09:16:59.110Z,100289.97
2023-08-14T09:19:28.997Z,100287.31
2023-08-14T09:21:59.480Z,100275.22
2023-08-14T09:24:29.323Z,100274.78
2023-08-14T09:26:59.074Z,100263.69
2023-08-14T09:29:34.132Z,100261.78
2023-08-14T09:32:05.333Z,100265.34
2023-08-14T09:34:35.144Z,100266.41
2023-08-14T09:37:04.895Z,100268.78
2023-08-14T09:39:34.651Z,100260.19
2023-08-14T09:42:04.380Z,100256.91
2023-08-14T09:44:36.703Z,100256.34
2023-08-14T09:47:06.392Z,100243.44
2023-08-14T09:49:36.319Z,100245.41
2023-08-14T09:52:07.851Z,100242.00
2023-08-14T09:54:38.240Z,100240.09
2023-08-14T09:57:08.822Z,100237.75
2023-08-14T09:59:41.858Z,100244.75
2023-08-14T10:02:12.567Z,100223.78
2023-08-14T10:04:43.040Z,100227.34
2023-08-14T10:07:13.301Z,100222.72
2023-08-14T10:09:44.142Z,100222.28
2023-08-14T10:12:16.756Z,100215.88
2023-08-14T10:14:52.146Z,100214.69
2023-08-14T10:17:24.203Z,100217.19
2023-08-14T10:19:56.304Z,100213.91
2023-08-14T10:22:27.130Z,100212.84
2023-08-14T10:24:57.380Z,100213.00
2023-08-14T10:27:28.249Z,100216.25
2023-08-14T10:30:01.913Z,100208.88
2023-08-14T10:32:34.192Z,100211.06
2023-08-14T10:35:04.452Z,100221.97
2023-08-14T10:37:52.884Z,100230.63
2023-08-14T10:40:28.144Z,100227.06
2023-08-14T10:43:02.349Z,100228.16
2023-08-14T10:45:35.428Z,100238.25
2023-08-14T10:48:12.496Z,100231.28
2023-08-14T10:50:42.382Z,100226.00
2023-08-14T10:53:15.008Z,100233.16
2023-08-14T10:55:48.259Z,100231.84
2023-08-14T10:58:40.119Z,100228.38
2023-08-14T11:01:13.899Z,100231.94
2023-08-14T11:04:02.294Z,100236.50
2023-08-14T11:06:35.057Z,100234.81
2023-08-14T11:09:07.641Z,100229.09
2023-08-14T11:11:40.458Z,100229.06
2023-08-14T11:14:10.838Z,100234.47
2023-08-14T11:16:48.849Z,100237.38
2023-08-14T11:19:23.708Z,100243.63
2023-08-14T11:21:54.845Z,100235.41
2023-08-14T11:24:25.476Z,100245.44
2023-08-14T11:26:56.811Z,100243.94
2023-08-14T11:29:34.265Z,100234.66
2023-08-14T11:32:09.425Z,100242.66
2023-08-14T11:34:40.461Z,100248.13
2023-08-14T11:37:13.959Z,100245.63
2023-08-14T11:39:45.448Z,100248.78
2023-08-14T11:42:15.568Z,100240.94
2023-08-14T11:44:46.028Z,100240.13
2023-08-14T11:47:18.891Z,100248.13
2023-08-14T11:49:49.595Z,100245.72
2023-08-14T11:52:24.576Z,100250.19
2023-08-14T11:54:54.738Z,100244.31
2023-08-14T11:57:26.880Z,100244.41
2023-08-14T11:59:57.907Z,100229.09
2023-08-14T12:02:31.928Z,100225.34
2023-08-14T12:05:04.982Z,100212.56
2023-08-14T12:07:35.114Z,100204.56
2023-08-14T12:10:10.716Z,100218.56
2023-08-14T12:12:51.491Z,100208.50
2023-08-14T12:15:29.900Z,100207.69
2023-08-14T12:18:02.499Z,100184.84
2023-08-14T12:20:35.405Z,100180.31
2023-08-14T12:23:21.336Z,100176.03
2023-08-14T12:25:53.292Z,100176.13
2023-08-14T12:28:23.498Z,100171.63
2023-08-14T12:30:53.482Z,100173.16
2023-08-14T12:33:25.978Z,100167.81
2023-08-14T12:35:55.972Z,100165.19
2023-08-14T12:38:25.789Z,100169.06
2023-08-14T12:40:55.679Z,100164.47
2023-08-14T12:43:36.556Z,100169.44
2023-08-14T12:46:10.636Z,100159.88
2023-08-14T12:48:43.208Z,100151.50
2023-08-14T12:51:12.976Z,100137.41
2023-08-14T12:53:42.766Z,100137.84
2023-08-14T12:56:18.133Z,100133.25
2023-08-14T12:58:49.246Z,100134.19
2023-08-14T13:01:24.126Z,100131.06
2023-08-14T13:03:59.746Z,100129.00
2023-08-14T13:06:30.948Z,100115.69
2023-08-14T13:09:00.888Z,100111.25
2023-08-14T13:11:31.267Z,100088.13
2023-08-14T13:14:01.204Z,100090.31
2023-08-14T13:16:30.992Z,100083.03
2023-08-14T13:19:03.381Z,100077.75
2023-08-14T13:21:33.142Z,100066.03
2023-08-14T13:24:03.059Z,100070.69
2023-08-14T13:26:35.754Z,100067.97
2023-08-14T13:29:07.334Z,100061.88
2023-08-14T13:31:37.108Z,100063.66
2023-08-14T13:34:09.484Z,100061.41
2023-08-14T13:36:39.264Z,100048.94
2023-08-14T13:39:10.721Z,100059.97
2023-08-14T13:41:40.467Z,100045.72
2023-08-14T13:44:11.836Z,100047.34
2023-08-14T13:46:42.282Z,100051.19
2023-08-14T13:49:14.705Z,100037.16
2023-08-14T13:51:46.013Z,100039.06
2023-08-14T13:54:15.969Z,100034.25
2023-08-14T13:56:45.709Z,100039.06
2023-08-14T13:59:15.678Z,100027.50
2023-08-14T14:01:48.148Z,100045.88
2023-08-14T14:04:21.034Z,100039.75
2023-08-14T14:06:50.943Z,100032.09
2023-08-14T14:09:20.811Z,100039.69
2023-08-14T14:11:50.657Z,100052.75
2023-08-14T14:14:20.427Z,100059.84
2023-08-14T14:16:54.268Z,100065.66
2023-08-14T14:19:26.808Z,100069.94
2023-08-14T14:21:56.582Z,100061.78
2023-08-14T14:24:26.405Z,100056.00
2023-08-14T14:26:56.356Z,100065.66
2023-08-14T14:29:26.792Z,100060.72
2023-08-14T14:31:57.042Z,100063.50
2023-08-14T14:34:30.152Z,100056.47
2023-08-14T14:37:00.055Z,100051.44
2023-08-14T14:39:29.785Z,100058.03
2023-08-14T14:41:59.553Z,100065.50
2023-08-14T14:44:29.512Z,100071.31
2023-08-14T14:46:59.241Z,100073.25
2023-08-14T14:49:31.612Z,100067.03
2023-08-14T14:52:03.952Z,100068.06
2023-08-14T14:54:33.709Z,100064.03
2023-08-14T14:57:03.466Z,100077.59
2023-08-14T14:59:33.226Z,100082.84
2023-08-14T15:02:09.242Z,100096.28
2023-08-14T15:04:48.456Z,100089.34
2023-08-14T15:07:18.450Z,100094.97
2023-08-14T15:09:48.484Z,100092.88
2023-08-14T15:12:18.245Z,100095.25
2023-08-14T15:14:47.976Z,100097.00
2023-08-14T15:17:17.979Z,100086.69
2023-08-14T15:19:50.501Z,100088.84
2023-08-14T15:22:20.291Z,100075.91
2023-08-14T15:24:50.078Z,100079.22
2023-08-14T15:27:20.131Z,100083.00
2023-08-14T15:29:50.122Z,100088.22
2023-08-14T15:32:19.898Z,100090.19
2023-08-14T15:34:52.238Z,100083.84
2023-08-14T15:37:22.105Z,100092.13
2023-08-14T15:39:53.753Z,100079.72
2023-08-14T15:42:23.505Z,100072.28
2023-08-14T15:44:56.485Z,100076.03
2023-08-14T15:47:26.423Z,100078.66
2023-08-14T15:49:58.804Z,100068.81
2023-08-14T15:52:32.202Z,100062.81
2023-08-14T15:55:02.103Z,100049.34
2023-08-14T15:57:31.864Z,100050.16
2023-08-14T16:00:04.010Z,100050.91
2023-08-14T16:02:34.738Z,100058.47
2023-08-14T16:05:07.584Z,100062.19
2023-08-14T16:07:37.386Z,100059.56
2023-08-14T16:10:07.928Z,100061.22
2023-08-14T16:12:37.701Z,100050.00
2023-08-14T16:15:10.194Z,100044.84
2023-08-14T16:17:43.082Z,100049.06
2023-08-14T16:20:16.198Z,100044.25
2023-08-14T16:22:46.007Z,100058.13
2023-08-14T16:25:15.837Z,100055.72
2023-08-14T16:27:45.590Z,100065.25
2023-08-14T16:30:15.506Z,100064.28
2023-08-14T16:32:47.562Z,100053.78
2023-08-14T16:35:20.234Z,100057.19
2023-08-14T16:37:49.997Z,100061.16
2023-08-14T16:40:19.996Z,100061.31
2023-08-14T16:42:49.788Z,100055.41
2023-08-14T16:45:19.578Z,100060.66
2023-08-14T16:47:49.339Z,100061.34
2023-08-14T16:50:21.932Z,100058.66
2023-08-14T16:52:53.485Z,100063.47
2023-08-14T16:55:23.245Z,100056.69
2023-08-14T16:57:53.111Z,100059.06
2023-08-14T17:00:23.220Z,100056.84
2023-08-14T17:02:53.729Z,100055.66
2023-08-14T17:05:26.357Z,100052.94
2023-08-14T17:07:56.474Z,100049.19
2023-08-14T17:10:26.224Z,100047.81
2023-08-14T17:12:56.019Z,100053.06
2023-08-14T17:15:25.789Z,100050.69
2023-08-14T17:17:55.575Z,100049.88
2023-08-14T17:20:28.011Z,100057.16
2023-08-14T17:22:57.776Z,100059.84
2023-08-14T17:25:27.549Z,100061.56
2023-08-14T17:27:57.359Z,100047.16
2023-08-14T17:30:27.232Z,100055.47
2023-08-14T17:32:57.077Z,100049.91
2023-08-14T17:35:29.497Z,100057.19
2023-08-14T17:37:59.367Z,100055.38
2023-08-14T17:40:30.732Z,100061.47
2023-08-14T17:43:00.511Z,100055.06
2023-08-14T17:45:30.307Z,100062.34
2023-08-14T17:48:00.392Z,100053.53
2023-08-14T17:50:34.258Z,100069.00
2023-08-14T17:53:05.412Z,100062.53
2023-08-14T17:55:35.247Z,100063.22
2023-08-14T17:58:05.126Z,100063.06
2023-08-14T18:00:35.309Z,100054.94
2023-08-14T18:03:05.688Z,100058.13
2023-08-14T18:05:38.604Z,100060.00
2023-08-14T18:08:11.628Z,100056.44
2023-08-14T18:10:41.621Z,100046.41
2023-08-14T18:13:11.419Z,100051.66
2023-08-14T18:15:41.953Z,100045.03
2023-08-14T18:18:11.996Z,100050.09
2023-08-14T18:20:44.480Z,100057.22
2023-08-14T18:23:14.263Z,100059.72
2023-08-14T18:25:44.008Z,100065.13
2023-08-14T18:28:13.799Z,100067.78
2023-08-14T18:30:45.402Z,100064.88
2023-08-14T18:33:16.358Z,100072.81
2023-08-14T18:35:50.112Z,100066.38
2023-08-14T18:38:20.051Z,100066.97
2023-08-14T18:40:50.224Z,100073.03
2023-08-14T18:43:20.030Z,100067.25
2023-08-14T18:45:50.006Z,100073.28
2023-08-14T18:48:19.850Z,100068.53
2023-08-14T18:50:52.250Z,100065.78
2023-08-14T18:53:22.629Z,100064.59
2023-08-14T18:55:52.625Z,100064.38
2023-08-14T18:58:23.037Z,100065.16
2023-08-14T19:00:52.895Z,100064.94
2023-08-14T19:03:22.683Z,100069.13
2023-08-14T19:05:59.652Z,100073.16
2023-08-14T19:08:30.188Z,100078.00
2023-08-14T19:11:00.374Z,100078.28
2023-08-14T19:13:30.335Z,100093.28
2023-08-14T19:16:00.622Z,100092.72
2023-08-14T19:18:30.565Z,100087.97
2023-08-14T19:21:03.472Z,100093.97
2023-08-14T19:23:33.328Z,100089.22
2023-08-14T19:26:14.969Z,100099.63
2023-08-14T19:28:48.911Z,100100.25
2023-08-14T19:31:18.762Z,100101.69
2023-08-14T19:33:48.568Z,100104.84
2023-08-14T19:36:21.279Z,100109.84
2023-08-14T19:38:51.083Z,100106.63
2023-08-14T19:41:21.135Z,100106.06
2023-08-14T19:43:51.495Z,100112.63
2023-08-14T19:46:21.590Z,100116.63
2023-08-14T19:48:51.559Z,100123.16
2023-08-14T19:51:24.115Z,100121.75
2023-08-14T19:53:54.221Z,100122.06
2023-08-14T19:56:24.023Z,100128.75
2023-08-14T19:58:54.093Z,100130.19
2023-08-14T20:01:24.232Z,100120.72
2023-08-14T20:03:54.197Z,100111.38
2023-08-14T20:06:26.929Z,100114.19
2023-08-14T20:08:56.761Z,100114.66
2023-08-14T20:11:26.648Z,100118.63
2023-08-14T20:13:56.514Z,100118.06
2023-08-14T20:16:26.346Z,100112.84
2023-08-14T20:18:56.854Z,100120.25
2023-08-14T20:21:29.518Z,100123.09
2023-08-14T20:24:00.003Z,100122.22
2023-08-14T20:26:29.885Z,100120.53
2023-08-14T20:28:59.712Z,100115.44
2023-08-14T20:31:29.499Z,100116.56
2023-08-14T20:33:59.344Z,100111.16
2023-08-14T20:36:33.915Z,100117.44
2023-08-14T20:39:03.827Z,100125.69
2023-08-14T20:41:36.524Z,100122.25
2023-08-14T20:44:06.743Z,100128.63
2023-08-14T20:46:36.594Z,100127.97
2023-08-14T20:49:06.644Z,100128.09
2023-08-14T20:51:39.151Z,100132.34
2023-08-14T20:54:09.491Z,100122.97
2023-08-14T20:56:39.252Z,100131.59
2023-08-14T20:59:09.009Z,100120.53
2023-08-14T21:01:38.834Z,100123.50
2023-08-14T21:04:09.528Z,100131.06
2023-08-14T21:06:41.983Z,100126.97
2023-08-14T21:09:11.738Z,100129.94
2023-08-14T21:11:41.553Z,100128.69
2023-08-14T21:16:41.641Z,100132.38
2023-08-14T21:19:12.914Z,100128.97
2023-08-14T21:21:47.769Z,100130.97
2023-08-14T21:24:17.609Z,100139.34
2023-08-14T21:26:47.390Z,100131.72
2023-08-14T21:29:17.258Z,100137.25
2023-08-14T21:31:47.050Z,100139.34
2023-08-14T21:34:17.398Z,100145.03
2023-08-14T21:36:49.824Z,100139.78
2023-08-14T21:39:20.453Z,100145.16
2023-08-14T21:41:50.354Z,100147.16
2023-08-14T21:44:22.510Z,100150.72
2023-08-14T21:46:52.327Z,100141.75
2023-08-14T21:49:22.560Z,100149.16
2023-08-14T21:51:55.163Z,100143.75
2023-08-14T21:54:24.993Z,100137.66
2023-08-14T21:56:54.830Z,100138.50
2023-08-14T21:59:24.652Z,100143.03
2023-08-14T22:01:54.488Z,100144.75
2023-08-14T22:04:24.569Z,100147.59
2023-08-14T22:06:57.013Z,100141.31
2023-08-14T22:09:28.491Z,100148.00
2023-08-14T22:11:58.271Z,100142.91
2023-08-14T22:14:28.035Z,100130.72
2023-08-14T22:16:57.876Z,100125.63
2023-08-14T22:19:27.794Z,100129.59
2023-08-14T22:22:00.290Z,100140.53
2023-08-14T22:24:40.282Z,100142.34
2023-08-14T22:27:12.361Z,100138.97
2023-08-14T22:29:42.257Z,100140.78
2023-08-14T22:32:12.079Z,100142.94
2023-08-14T22:34:42.103Z,100139.50
2023-08-14T22:37:14.528Z,100142.22
2023-08-14T22:39:44.361Z,100145.06
2023-08-14T22:42:14.204Z,100139.66
2023-08-14T22:44:43.961Z,100146.91
2023-08-14T22:47:13.770Z,100144.06
2023-08-14T22:49:43.706Z,100140.25
2023-08-14T22:52:16.138Z,100140.78
2023-08-14T22:54:46.090Z,100137.84
2023-08-14T22:57:15.942Z,100140.38
2023-08-14T22:59:45.949Z,100144.63
2023-08-14T23:02:16.136Z,100148.16
2023-08-14T23:04:45.919Z,100152.41
2023-08-14T23:07:18.625Z,100152.28
2023-08-14T23:09:48.577Z,100148.59
2023-08-14T23:12:18.361Z,100153.84
2023-08-14T23:14:48.404Z,100159.22
2023-08-14T23:17:18.483Z,100162.59
2023-08-14T23:19:48.674Z,100156.38
2023-08-14T23:22:21.177Z,100160.06
2023-08-14T23:24:51.177Z,100163.03
2023-08-14T23:27:21.249Z,100152.84
2023-08-14T23:29:52.541Z,100152.44
2023-08-14T23:32:22.569Z,100154.00
2023-08-14T23:34:53.366Z,100142.78
2023-08-14T23:37:26.769Z,100145.06
2023-08-14T23:39:56.571Z,100148.28
2023-08-14T23:42:26.554Z,100144.19
2023-08-14T23:44:56.322Z,100139.38
2023-08-14T23:47:27.031Z,100140.50
2023-08-14T23:49:56.781Z,100138.25
2023-08-14T23:52:29.112Z,100142.22
2023-08-14T23:54:58.884Z,100139.88
2023-08-14T23:57:28.660Z,100141.16
2023-08-14T23:59:58.493Z,100132.53
